Time;durP1;ratioP1;P1;durP2;ratioP2;P2;SDS_P1;SDS_P2;PMS_P1;PMS_P2;Temp;Humidity;BMP_temperature;BMP_pressure;BME280_temperature;BME280_humidity;BME280_pressure;Samples;Min_cycle;Max_cycle;Signal;HPM_P1;HPM_P2
2021/12/24 00:00:46;;;;;;;138.43;44.83;;;;;;;7.17;100.00;100209.25;4997452;28;20033;-80
2021/12/24 00:03:13;;;;;;;152.50;45.22;;;;;;;7.11;100.00;100196.94;5018406;28;20369;-80
2021/12/24 00:05:39;;;;;;;155.13;45.40;;;;;;;7.07;100.00;100202.78;5015735;28;20088;-80
2021/12/24 00:08:06;;;;;;;136.45;40.50;;;;;;;7.06;100.00;100199.16;5011122;28;20034;-80
2021/12/24 00:10:32;;;;;;;126.15;41.47;;;;;;;7.11;100.00;100193.38;5016137;28;20628;-79
2021/12/24 00:13:03;;;;;;;148.55;42.60;;;;;;;7.11;100.00;100194.22;5008448;28;20076;-80
2021/12/24 00:19:12;;;;;;;121.80;39.45;;;;;;;7.09;100.00;100193.47;4998835;28;20133;-80
2021/12/24 00:22:11;;;;;;;133.07;40.53;;;;;;;7.09;100.00;100198.06;5013862;28;20104;-79
2021/12/24 00:35:13;;;;;;;104.80;36.95;;;;;;;7.17;100.00;100191.06;4999518;28;20058;-80
2021/12/24 00:37:41;;;;;;;114.72;40.15;;;;;;;7.24;100.00;100185.16;4981410;28;20030;-79
2021/12/24 00:40:18;;;;;;;104.18;37.33;;;;;;;7.19;100.00;100188.22;5001313;28;20032;-79
2021/12/24 00:42:46;;;;;;;108.85;39.25;;;;;;;7.22;100.00;100178.97;5010114;28;20045;-79
2021/12/24 00:45:18;;;;;;;91.65;35.33;;;;;;;7.26;100.00;100180.44;5012695;28;20053;-79
2021/12/24 00:47:45;;;;;;;106.97;38.38;;;;;;;7.23;100.00;100176.13;5017243;28;20033;-79
2021/12/24 00:50:15;;;;;;;91.65;34.70;;;;;;;7.31;100.00;100180.97;5016947;28;20176;-79
2021/12/24 00:55:21;;;;;;;114.68;39.35;;;;;;;7.24;100.00;100163.38;4997482;28;20031;-79
2021/12/24 00:58:01;;;;;;;90.40;35.80;;;;;;;7.32;100.00;100172.69;5010950;28;20487;-79
2021/12/24 01:00:34;;;;;;;96.43;36.85;;;;;;;7.35;100.00;100175.16;5005193;28;20494;-79
2021/12/24 01:03:02;;;;;;;107.00;39.60;;;;;;;7.28;100.00;100165.75;5008288;28;20042;-79
2021/12/24 01:05:29;;;;;;;116.47;39.30;;;;;;;7.38;100.00;100165.00;5017229;28;20033;-79
2021/12/24 01:07:55;;;;;;;94.82;35.20;;;;;;;7.36;100.00;100173.31;5016069;28;20073;-79
2021/12/24 01:10:25;;;;;;;97.72;36.97;;;;;;;7.38;100.00;100168.63;5033613;28;20030;-79
2021/12/24 01:12:50;;;;;;;108.45;40.65;;;;;;;7.29;100.00;100169.31;5004736;28;20038;-79
2021/12/24 01:15:17;;;;;;;111.90;39.63;;;;;;;7.33;100.00;100154.50;4999108;28;20033;-79
2021/12/24 01:18:01;;;;;;;118.65;41.30;;;;;;;7.33;100.00;100160.81;4998541;28;20075;-79
2021/12/24 01:20:50;;;;;;;104.38;41.35;;;;;;;7.43;100.00;100154.63;5013593;28;20096;-79
2021/12/24 01:26:12;;;;;;;99.97;38.70;;;;;;;7.47;100.00;100153.41;5007888;28;20026;-79
2021/12/24 01:44:56;;;;;;;134.85;43.38;;;;;;;7.44;100.00;100146.34;5013637;28;20026;-80
2021/12/24 01:47:22;;;;;;;125.38;43.72;;;;;;;7.40;100.00;100149.44;4996938;28;20145;-79
2021/12/24 01:49:47;;;;;;;134.30;45.22;;;;;;;7.47;100.00;100150.69;4997651;28;20117;-79
2021/12/24 01:52:15;;;;;;;150.52;47.80;;;;;;;7.49;100.00;100152.31;5007959;28;20038;-79
2021/12/24 01:54:44;;;;;;;167.32;49.72;;;;;;;7.41;100.00;100149.34;5015678;28;20470;-80
2021/12/24 01:57:13;;;;;;;140.35;46.45;;;;;;;7.53;100.00;100159.25;4986232;28;20057;-79
2021/12/24 01:59:42;;;;;;;153.68;48.55;;;;;;;7.44;100.00;100157.25;5002749;28;20039;-79
2021/12/24 02:02:09;;;;;;;142.63;47.60;;;;;;;7.50;100.00;100161.34;4993654;28;20235;-79
2021/12/24 02:04:34;;;;;;;140.98;46.35;;;;;;;7.58;100.00;100158.03;5019450;28;20056;-79
2021/12/24 02:07:02;;;;;;;145.88;47.20;;;;;;;7.55;100.00;100165.44;5019366;28;20025;-79
2021/12/24 02:09:28;;;;;;;129.68;45.72;;;;;;;7.57;100.00;100151.72;5016171;28;20077;-79
2021/12/24 02:11:53;;;;;;;146.23;44.75;;;;;;;7.52;100.00;100162.97;5019010;28;20030;-79
2021/12/24 02:14:22;;;;;;;166.25;52.10;;;;;;;7.54;100.00;100160.13;5031637;28;20034;-79
2021/12/24 02:30:13;;;;;;;141.70;46.88;;;;;;;7.55;100.00;100140.94;5020180;28;20053;-79
2021/12/24 02:32:41;;;;;;;154.55;48.28;;;;;;;7.53;100.00;100140.19;4996220;28;20038;-79
2021/12/24 02:35:08;;;;;;;140.63;47.33;;;;;;;7.59;100.00;100146.16;5013991;28;20045;-79
2021/12/24 02:37:34;;;;;;;127.35;44.40;;;;;;;7.59;100.00;100129.78;4999467;28;20201;-79
2021/12/24 02:39:59;;;;;;;150.00;48.83;;;;;;;7.53;100.00;100126.56;5017219;28;20078;-80
2021/12/24 02:42:25;;;;;;;140.75;45.97;;;;;;;7.64;100.00;100133.03;5003638;28;20437;-80
2021/12/24 02:44:52;;;;;;;129.07;44.72;;;;;;;7.62;100.00;100130.41;5016949;28;20026;-80
2021/12/24 02:54:57;;;;;;;139.30;44.40;;;;;;;7.63;100.00;100134.88;5013891;28;20041;-79
2021/12/24 02:57:27;;;;;;;135.95;46.15;;;;;;;7.54;100.00;100125.59;5016897;28;20026;-79
2021/12/24 03:00:06;;;;;;;138.18;46.10;;;;;;;7.58;100.00;100120.78;5018705;28;20034;-79
2021/12/24 03:02:33;;;;;;;140.20;46.05;;;;;;;7.65;100.00;100124.72;4990266;28;20046;-79
2021/12/24 03:04:59;;;;;;;141.48;45.83;;;;;;;7.67;100.00;100132.78;4985877;28;20478;-79
2021/12/24 03:07:24;;;;;;;138.35;44.03;;;;;;;7.67;100.00;100133.69;4971801;28;20066;-79
2021/12/24 03:09:53;;;;;;;135.77;45.78;;;;;;;7.63;100.00;100128.59;5016050;28;20096;-79
2021/12/24 03:12:19;;;;;;;140.52;45.90;;;;;;;7.67;100.00;100130.06;5014525;28;20034;-79
2021/12/24 03:14:44;;;;;;;158.85;48.33;;;;;;;7.62;100.00;100127.69;4998597;28;20511;-79
2021/12/24 03:17:15;;;;;;;145.27;47.03;;;;;;;7.70;100.00;100124.38;5003057;28;20129;-79
2021/12/24 03:19:41;;;;;;;132.60;45.50;;;;;;;7.77;100.00;100124.75;5015230;28;20482;-79
2021/12/24 03:24:35;;;;;;;148.98;47.78;;;;;;;7.72;100.00;100122.38;5000276;28;20629;-79
2021/12/24 03:27:02;;;;;;;144.80;46.83;;;;;;;7.73;100.00;100116.81;5004881;28;20030;-80
2021/12/24 03:29:28;;;;;;;144.38;46.10;;;;;;;7.72;100.00;100108.75;5001693;28;20113;-80
2021/12/24 03:31:53;;;;;;;168.23;49.92;;;;;;;7.65;100.00;100113.84;5016895;28;20096;-79
2021/12/24 03:34:21;;;;;;;167.68;52.10;;;;;;;7.70;100.00;100124.38;5002347;28;20026;-79
2021/12/24 03:36:48;;;;;;;172.15;52.10;;;;;;;7.73;100.00;100121.41;5018013;28;20111;-79
2021/12/24 03:39:14;;;;;;;178.95;51.50;;;;;;;7.71;100.00;100126.13;5006054;28;20398;-79
2021/12/24 03:41:40;;;;;;;185.05;52.05;;;;;;;7.72;100.00;100117.81;5018537;28;20071;-80
2021/12/24 03:44:09;;;;;;;178.35;50.90;;;;;;;7.73;100.00;100122.28;5019970;28;20468;-79
2021/12/24 03:46:45;;;;;;;163.90;46.03;;;;;;;7.84;100.00;100126.03;5000876;28;20022;-80
2021/12/24 03:49:19;;;;;;;179.57;52.75;;;;;;;7.80;100.00;100139.00;5000293;28;20113;-80
2021/12/24 03:51:56;;;;;;;189.13;51.70;;;;;;;7.73;100.00;100124.13;5002241;28;20033;-80
2021/12/24 03:57:06;;;;;;;165.48;49.47;;;;;;;7.82;100.00;100127.97;5010282;28;20041;-80
2021/12/24 03:59:31;;;;;;;195.35;54.63;;;;;;;7.74;100.00;100131.34;4999911;28;20026;-80
2021/12/24 04:01:57;;;;;;;203.77;54.08;;;;;;;7.74;100.00;100134.06;5002495;28;20157;-79
2021/12/24 04:04:22;;;;;;;186.65;51.55;;;;;;;7.81;100.00;100142.63;5000073;28;20068;-80
2021/12/24 04:06:49;;;;;;;201.13;52.58;;;;;;;7.82;100.00;100145.22;5003035;28;20041;-80
2021/12/24 04:09:15;;;;;;;197.75;54.30;;;;;;;7.77;100.00;100138.38;5017976;28;20462;-80
2021/12/24 04:11:41;;;;;;;231.40;57.65;;;;;;;7.79;100.00;100142.72;5017451;28;20049;-80
2021/12/24 04:14:07;;;;;;;199.05;51.40;;;;;;;7.72;100.00;100138.75;4999936;28;20032;-80
2021/12/24 04:16:33;;;;;;;197.73;52.47;;;;;;;7.77;100.00;100144.69;5015978;28;20117;-80
2021/12/24 04:26:55;;;;;;;197.32;52.95;;;;;;;7.88;100.00;100141.97;5002601;28;20109;-79
2021/12/24 04:29:21;;;;;;;202.98;55.15;;;;;;;7.87;100.00;100143.00;5000235;28;20069;-79
2021/12/24 04:31:55;;;;;;;188.52;54.00;;;;;;;7.96;100.00;100146.84;4999470;28;20038;-80
2021/12/24 04:34:26;;;;;;;223.10;57.60;;;;;;;7.89;100.00;100143.72;5001179;28;20034;-79
2021/12/24 05:03:30;;;;;;;193.95;51.75;;;;;;;7.70;100.00;100129.81;4998240;28;20030;-79
2021/12/24 05:06:10;;;;;;;187.93;50.92;;;;;;;7.72;100.00;100138.75;5006030;28;20518;-79
2021/12/24 05:08:42;;;;;;;186.60;49.03;;;;;;;7.73;100.00;100135.03;4999531;28;20030;-79
2021/12/24 05:11:11;;;;;;;180.43;49.00;;;;;;;7.77;100.00;100139.25;4998091;28;20030;-79
2021/12/24 05:13:38;;;;;;;150.75;48.55;;;;;;;7.82;100.00;100126.16;4985539;28;20029;-79
2021/12/24 05:21:37;;;;;;;157.68;47.70;;;;;;;7.90;100.00;100136.41;5014465;28;20390;-79
2021/12/24 05:24:07;;;;;;;156.48;47.35;;;;;;;7.89;100.00;100145.59;5015979;28;20030;-78
2021/12/24 05:26:34;;;;;;;161.18;47.17;;;;;;;7.87;100.00;100143.00;5006228;28;20129;-79
2021/12/24 05:29:02;;;;;;;141.02;45.10;;;;;;;7.97;100.00;100148.56;5010965;28;20053;-79
2021/12/24 05:31:28;;;;;;;139.32;43.97;;;;;;;8.00;100.00;100148.34;5019959;28;20481;-79
2021/12/24 05:33:53;;;;;;;130.02;42.03;;;;;;;7.97;100.00;100136.78;5019991;28;20026;-79
2021/12/24 05:36:19;;;;;;;149.20;47.13;;;;;;;7.91;100.00;100138.16;5017579;28;20112;-79
2021/12/24 05:38:46;;;;;;;137.95;45.15;;;;;;;7.93;100.00;100147.06;4999923;28;20381;-79
2021/12/24 05:41:15;;;;;;;142.05;42.22;;;;;;;7.99;100.00;100145.72;5002049;28;20034;-78
2021/12/24 05:43:41;;;;;;;146.38;45.25;;;;;;;7.93;100.00;100148.94;5018543;28;20034;-79
2021/12/24 05:46:06;;;;;;;134.68;43.72;;;;;;;7.86;100.00;100141.25;5018501;28;20521;-78
2021/12/24 05:48:32;;;;;;;132.57;43.78;;;;;;;7.95;100.00;100145.09;5006513;28;20034;-78
2021/12/24 05:50:58;;;;;;;140.70;42.75;;;;;;;7.97;100.00;100156.75;4990179;28;20030;-78
2021/12/24 05:53:25;;;;;;;132.45;41.85;;;;;;;7.93;100.00;100154.38;4994772;28;20129;-78
2021/12/24 05:55:51;;;;;;;125.40;41.25;;;;;;;7.93;100.00;100159.84;4999942;28;20151;-77
2021/12/24 05:58:18;;;;;;;132.68;39.95;;;;;;;7.93;100.00;100157.97;5013707;28;20045;-78
2021/12/24 06:00:43;;;;;;;152.32;42.28;;;;;;;7.88;100.00;100163.78;5013827;28;20030;-78
2021/12/24 06:03:10;;;;;;;142.10;40.63;;;;;;;7.86;100.00;100157.59;5003867;28;20034;-78
2021/12/24 06:05:37;;;;;;;129.30;39.30;;;;;;;7.99;100.00;100159.38;5017511;28;20029;-78
2021/12/24 06:08:03;;;;;;;126.35;39.35;;;;;;;8.00;100.00;100159.25;5017822;28;20034;-79
2021/12/24 06:10:29;;;;;;;112.57;38.63;;;;;;;7.94;100.00;100161.59;5003644;28;20390;-79
2021/12/24 06:12:54;;;;;;;146.02;39.85;;;;;;;8.01;100.00;100162.81;5001843;28;20030;-78
2021/12/24 06:15:24;;;;;;;124.00;36.50;;;;;;;7.95;100.00;100161.44;5008483;28;20026;-78
2021/12/24 06:17:53;;;;;;;102.43;36.28;;;;;;;8.02;100.00;100168.16;5019327;28;20545;-79
2021/12/24 06:20:19;;;;;;;113.80;36.17;;;;;;;7.88;100.00;100163.78;4999747;28;20581;-79
2021/12/24 06:22:44;;;;;;;102.57;34.05;;;;;;;8.01;100.00;100165.56;5008193;28;20046;-78
2021/12/24 06:25:10;;;;;;;108.93;34.00;;;;;;;7.97;100.00;100170.38;5012736;28;20076;-78
2021/12/24 06:27:36;;;;;;;107.07;35.60;;;;;;;7.90;100.00;100175.47;5012202;28;20092;-80
2021/12/24 06:30:04;;;;;;;114.93;36.28;;;;;;;7.99;100.00;100156.63;5019089;28;20046;-79
2021/12/24 06:32:30;;;;;;;104.75;34.80;;;;;;;7.91;100.00;100165.41;5003779;28;20084;-78
2021/12/24 06:34:55;;;;;;;117.25;36.13;;;;;;;7.90;100.00;100164.56;5007618;28;20485;-78
2021/12/24 06:37:21;;;;;;;111.43;37.40;;;;;;;7.96;100.00;100171.38;5008562;28;20038;-79
2021/12/24 06:39:47;;;;;;;111.80;36.00;;;;;;;7.89;100.00;100173.72;5004130;28;20064;-78
2021/12/24 06:42:12;;;;;;;122.35;34.97;;;;;;;7.96;100.00;100171.38;5000048;28;20049;-79
2021/12/24 06:44:38;;;;;;;113.10;35.85;;;;;;;7.99;100.00;100175.72;5003824;28;20029;-79
2021/12/24 06:47:04;;;;;;;108.90;34.17;;;;;;;7.99;100.00;100168.41;5023759;28;20050;-79
2021/12/24 06:49:30;;;;;;;99.88;32.92;;;;;;;8.01;100.00;100171.00;4999396;28;20035;-79
2021/12/24 06:51:55;;;;;;;110.38;34.10;;;;;;;8.00;100.00;100166.53;4982605;28;20048;-78
2021/12/24 06:54:21;;;;;;;88.07;30.05;;;;;;;8.00;100.00;100167.41;5000344;28;20065;-79
2021/12/24 06:56:47;;;;;;;84.13;30.77;;;;;;;7.99;100.00;100173.84;5014431;28;20050;-79
2021/12/24 06:59:14;;;;;;;111.72;34.35;;;;;;;8.00;100.00;100181.06;5026559;28;20042;-79
2021/12/24 07:01:39;;;;;;;89.13;29.77;;;;;;;8.09;100.00;100172.13;5011819;28;20053;-80
2021/12/24 07:04:05;;;;;;;90.13;31.30;;;;;;;7.96;100.00;100148.69;5012229;28;20029;-80
2021/12/24 07:06:31;;;;;;;88.50;30.48;;;;;;;8.03;100.00;100172.59;5015963;28;20049;-79
2021/12/24 07:08:57;;;;;;;104.28;31.67;;;;;;;8.00;100.00;100174.72;4996138;28;20084;-78
2021/12/24 07:11:22;;;;;;;95.70;32.88;;;;;;;7.97;100.00;100158.59;5011450;28;20068;-79
2021/12/24 07:13:48;;;;;;;91.20;32.63;;;;;;;7.94;100.00;100164.31;4987102;28;20030;-79
2021/12/24 07:16:13;;;;;;;110.82;32.80;;;;;;;7.96;100.00;100155.00;5001435;28;20029;-79
2021/12/24 07:18:39;;;;;;;105.68;33.85;;;;;;;7.94;100.00;100164.31;5010230;28;20029;-79
2021/12/24 07:21:06;;;;;;;94.95;33.00;;;;;;;7.95;100.00;100168.75;5011929;28;20034;-79
2021/12/24 07:23:32;;;;;;;98.63;33.50;;;;;;;8.04;100.00;100158.00;4996638;28;20036;-79
2021/12/24 07:25:57;;;;;;;91.22;32.25;;;;;;;8.05;100.00;100170.66;4996373;28;20034;-79
2021/12/24 07:28:23;;;;;;;94.57;33.65;;;;;;;7.94;100.00;100169.78;4982133;28;20072;-78
2021/12/24 07:30:48;;;;;;;100.15;34.10;;;;;;;7.92;100.00;100167.16;5013186;28;20140;-80
2021/12/24 07:33:14;;;;;;;101.40;32.95;;;;;;;7.97;100.00;100174.94;5002067;28;20084;-80
2021/12/24 07:35:42;;;;;;;97.03;31.27;;;;;;;8.05;100.00;100175.22;5001102;28;20072;-79
2021/12/24 07:38:09;;;;;;;89.68;34.47;;;;;;;7.95;100.00;100176.94;5016559;28;20089;-79
2021/12/24 07:40:35;;;;;;;111.85;33.78;;;;;;;7.93;100.00;100166.16;5014148;28;20076;-79
2021/12/24 07:43:01;;;;;;;98.30;31.85;;;;;;;7.99;100.00;100181.16;4998199;28;20056;-78
2021/12/24 07:45:27;;;;;;;98.85;32.75;;;;;;;7.95;100.00;100177.78;5006090;28;20029;-79
2021/12/24 07:48:09;;;;;;;80.20;31.52;;;;;;;7.93;100.00;100174.31;5014970;28;20042;-79
2021/12/24 07:53:05;;;;;;;90.22;30.38;;;;;;;7.89;100.00;100181.88;5009291;28;20041;-79
2021/12/24 07:55:31;;;;;;;102.10;32.92;;;;;;;7.86;100.00;100178.53;4998883;28;20027;-79
2021/12/24 07:57:57;;;;;;;100.45;31.23;;;;;;;7.95;100.00;100196.00;5017988;28;20028;-79
2021/12/24 08:00:25;;;;;;;90.53;29.63;;;;;;;7.98;100.00;100182.16;5010864;28;20046;-79
2021/12/24 08:02:51;;;;;;;102.15;32.60;;;;;;;7.95;100.00;100191.41;5000471;28;20097;-78
2021/12/24 08:05:23;;;;;;;109.85;33.60;;;;;;;7.96;100.00;100186.88;5011372;28;20038;-79
2021/12/24 08:07:49;;;;;;;100.25;32.53;;;;;;;8.06;100.00;100179.69;5011401;28;20056;-79
2021/12/24 08:10:15;;;;;;;95.97;32.30;;;;;;;8.02;100.00;100186.38;5010723;28;20038;-79
2021/12/24 08:12:40;;;;;;;110.95;34.88;;;;;;;7.93;100.00;100184.38;5012963;28;20045;-78
2021/12/24 08:15:07;;;;;;;92.85;31.85;;;;;;;7.99;100.00;100190.22;5009414;28;20038;-79
2021/12/24 08:17:33;;;;;;;101.88;33.95;;;;;;;7.92;100.00;100180.78;5014867;28;20034;-79
2021/12/24 08:19:58;;;;;;;99.75;36.33;;;;;;;7.93;100.00;100168.03;5008024;28;20027;-79
2021/12/24 08:22:24;;;;;;;120.38;34.80;;;;;;;7.94;100.00;100173.34;5005824;28;20097;-79
2021/12/24 08:24:49;;;;;;;108.40;37.88;;;;;;;7.93;100.00;100179.78;5014121;28;20084;-79
2021/12/24 08:27:16;;;;;;;110.93;34.40;;;;;;;8.00;100.00;100172.88;5011358;28;20090;-78
2021/12/24 08:29:43;;;;;;;114.03;35.22;;;;;;;7.99;100.00;100175.72;4999530;28;20121;-79
2021/12/24 08:32:09;;;;;;;121.60;36.38;;;;;;;8.00;100.00;100178.31;5014531;28;20046;-79
2021/12/24 08:34:34;;;;;;;111.63;35.95;;;;;;;8.03;100.00;100175.31;4999648;28;20031;-79
2021/12/24 08:37:00;;;;;;;118.85;35.92;;;;;;;7.98;100.00;100176.69;4999226;28;20038;-79
2021/12/24 08:39:25;;;;;;;116.10;35.40;;;;;;;7.96;100.00;100179.53;4994685;28;20046;-79
2021/12/24 08:41:54;;;;;;;117.82;36.42;;;;;;;7.96;100.00;100170.50;4980021;28;20331;-79
2021/12/24 08:44:24;;;;;;;111.10;34.70;;;;;;;7.98;100.00;100173.97;4984376;28;20026;-79
2021/12/24 08:46:50;;;;;;;113.00;33.72;;;;;;;8.01;100.00;100166.41;5014101;28;20030;-78
2021/12/24 08:49:15;;;;;;;122.40;38.95;;;;;;;8.02;100.00;100162.69;5025420;28;20049;-79
2021/12/24 08:51:41;;;;;;;114.07;36.33;;;;;;;8.02;100.00;100161.84;5014599;28;20378;-79
2021/12/24 08:54:06;;;;;;;122.88;34.47;;;;;;;8.04;100.00;100158.00;5020228;28;20038;-79
2021/12/24 08:56:32;;;;;;;101.10;33.33;;;;;;;8.05;100.00;100158.84;4997908;28;20092;-79
2021/12/24 08:58:57;;;;;;;120.20;34.15;;;;;;;8.08;100.00;100155.88;5002683;28;20036;-78
2021/12/24 09:01:23;;;;;;;126.00;34.42;;;;;;;8.06;100.00;100150.56;4996381;28;20048;-79
2021/12/24 09:03:48;;;;;;;105.20;31.90;;;;;;;8.05;100.00;100151.56;4994277;28;20030;-79
2021/12/24 09:06:14;;;;;;;106.03;33.42;;;;;;;8.08;100.00;100161.34;4996004;28;20084;-79
2021/12/24 09:08:42;;;;;;;111.95;31.30;;;;;;;8.09;100.00;100152.19;5011028;28;20053;-79
2021/12/24 09:11:08;;;;;;;104.32;30.95;;;;;;;8.08;100.00;100154.03;5003048;28;20033;-79
2021/12/24 09:13:34;;;;;;;104.00;29.63;;;;;;;8.16;100.00;100156.13;5001650;28;20049;-79
2021/12/24 09:15:59;;;;;;;95.68;29.80;;;;;;;8.15;100.00;100151.69;5022955;28;20402;-79
2021/12/24 09:18:25;;;;;;;94.68;29.77;;;;;;;8.11;100.00;100147.47;5004681;28;20113;-79
2021/12/24 09:20:51;;;;;;;93.95;27.92;;;;;;;8.16;100.00;100142.50;5015820;28;20042;-79
2021/12/24 09:23:18;;;;;;;99.00;28.40;;;;;;;8.25;100.00;100140.91;5012011;28;20709;-79
2021/12/24 09:25:44;;;;;;;80.45;28.80;;;;;;;8.26;100.00;100137.16;5008904;28;20043;-78
2021/12/24 09:28:10;;;;;;;87.90;26.55;;;;;;;8.22;100.00;100141.16;5012119;28;20481;-79
2021/12/24 09:30:38;;;;;;;89.28;28.20;;;;;;;8.36;100.00;100142.75;4986118;28;20110;-79
2021/12/24 09:33:04;;;;;;;80.53;26.10;;;;;;;8.35;100.00;100141.03;5014084;28;20129;-79
2021/12/24 09:35:31;;;;;;;80.13;25.05;;;;;;;8.42;100.00;100147.72;5017632;28;20030;-78
2021/12/24 09:37:58;;;;;;;81.50;26.15;;;;;;;8.33;100.00;100140.25;5016131;28;20030;-78
2021/12/24 09:40:24;;;;;;;87.35;24.27;;;;;;;8.37;100.00;100144.50;4998701;28;20027;-78
2021/12/24 09:42:49;;;;;;;89.72;24.55;;;;;;;8.39;100.00;100153.41;4999727;28;20065;-79
2021/12/24 09:45:17;;;;;;;95.38;26.90;;;;;;;8.38;100.00;100147.09;5009657;28;20302;-79
2021/12/24 09:47:42;;;;;;;79.10;25.92;;;;;;;8.34;100.00;100156.50;4998231;28;20033;-79
2021/12/24 09:50:12;;;;;;;87.82;25.25;;;;;;;8.37;100.00;100149.94;5005085;28;20422;-79
2021/12/24 09:52:39;;;;;;;77.18;24.42;;;;;;;8.39;100.00;100156.13;5002477;28;20034;-79
2021/12/24 09:55:11;;;;;;;78.53;25.10;;;;;;;8.36;100.00;100148.19;5017001;28;20045;-79
2021/12/24 09:57:37;;;;;;;85.47;24.83;;;;;;;8.35;100.00;100158.25;4997745;28;20041;-79
2021/12/24 10:00:06;;;;;;;77.63;24.48;;;;;;;8.40;100.00;100149.69;5004883;28;20382;-79
2021/12/24 10:02:43;;;;;;;84.28;25.70;;;;;;;8.37;100.00;100148.06;5009155;28;20073;-80
2021/12/24 10:05:29;;;;;;;88.32;26.00;;;;;;;8.41;100.00;100148.69;4998572;28;20049;-80
2021/12/24 10:08:00;;;;;;;93.55;25.45;;;;;;;8.37;100.00;100144.50;5001932;28;20533;-79
2021/12/24 10:10:29;;;;;;;87.88;26.65;;;;;;;8.36;100.00;100138.19;5009765;28;20402;-80
2021/12/24 10:12:55;;;;;;;99.50;27.63;;;;;;;8.35;100.00;100143.75;4988006;28;20354;-80
2021/12/24 10:15:20;;;;;;;100.75;27.15;;;;;;;8.40;100.00;100138.78;5005785;28;20049;-79
2021/12/24 10:17:46;;;;;;;89.60;28.63;;;;;;;8.38;100.00;100138.91;5000672;28;20034;-79
2021/12/24 10:20:13;;;;;;;89.65;29.05;;;;;;;8.41;100.00;100144.13;5012020;28;20038;-79
2021/12/24 10:22:49;;;;;;;89.93;29.23;;;;;;;8.45;100.00;100148.34;5018940;28;20072;-79
2021/12/24 10:25:15;;;;;;;86.93;30.25;;;;;;;8.37;100.00;100149.94;5021655;28;20047;-79
2021/12/24 10:27:42;;;;;;;98.40;32.67;;;;;;;8.28;100.00;100144.25;5013423;28;20030;-77
2021/12/24 10:30:23;;;;;;;110.88;32.63;;;;;;;8.34;100.00;100147.47;5012493;28;20518;-79
2021/12/24 10:32:51;;;;;;;109.50;32.30;;;;;;;8.34;100.00;100140.13;5004978;28;20046;-78
2021/12/24 10:35:30;;;;;;;120.07;34.70;;;;;;;8.35;100.00;100146.47;5002386;28;20033;-79
2021/12/24 10:38:09;;;;;;;111.22;33.80;;;;;;;8.34;100.00;100133.81;5009728;28;20045;-79
2021/12/24 10:40:34;;;;;;;116.97;36.75;;;;;;;8.41;100.00;100137.78;5020858;28;20657;-79
2021/12/24 10:43:00;;;;;;;93.68;32.67;;;;;;;8.44;100.00;100134.84;5019573;28;20038;-79
2021/12/24 10:45:26;;;;;;;98.25;31.95;;;;;;;8.45;100.00;100139.31;5017027;28;20030;-79
2021/12/24 10:47:51;;;;;;;102.35;35.50;;;;;;;8.46;100.00;100144.63;5002731;28;20109;-79
2021/12/24 10:53:32;;;;;;;111.95;35.70;;;;;;;8.37;100.00;100133.59;5002239;28;20077;-79
2021/12/24 10:55:57;;;;;;;108.80;34.65;;;;;;;8.37;100.00;100131.72;4999004;28;20023;-78
2021/12/24 10:58:25;;;;;;;101.63;34.72;;;;;;;8.43;100.00;100127.66;5009655;28;20040;-78
2021/12/24 11:00:59;;;;;;;110.05;35.10;;;;;;;8.43;100.00;100133.97;5006215;28;20034;-77
2021/12/24 11:03:32;;;;;;;112.82;35.80;;;;;;;8.42;100.00;100131.34;5016309;28;20497;-78
2021/12/24 11:06:06;;;;;;;119.10;37.03;;;;;;;8.39;100.00;100128.84;5017278;28;20084;-78
2021/12/24 11:08:33;;;;;;;133.45;37.10;;;;;;;8.38;100.00;100130.72;5004134;28;20026;-79
2021/12/24 11:11:01;;;;;;;121.05;37.30;;;;;;;8.46;100.00;100135.56;4987353;28;20517;-78
2021/12/24 11:13:32;;;;;;;127.72;37.80;;;;;;;8.49;100.00;100129.00;5017820;28;20057;-78
2021/12/24 11:16:02;;;;;;;138.48;39.88;;;;;;;8.43;100.00;100122.22;5018109;28;20045;-78
2021/12/24 11:18:34;;;;;;;123.85;37.75;;;;;;;8.45;100.00;100131.97;5014291;28;20022;-78
2021/12/24 11:21:06;;;;;;;118.35;39.25;;;;;;;8.44;100.00;100127.53;4983075;28;20501;-78
2021/12/24 11:23:34;;;;;;;126.78;39.40;;;;;;;8.42;100.00;100125.88;5017279;28;20026;-77
2021/12/24 11:26:05;;;;;;;141.68;43.83;;;;;;;8.45;100.00;100126.53;4991150;28;20057;-78
2021/12/24 11:28:33;;;;;;;108.18;37.88;;;;;;;8.64;100.00;100125.88;4998839;28;20029;-78
2021/12/24 11:31:03;;;;;;;114.00;38.85;;;;;;;8.52;100.00;100124.16;5033749;28;20096;-78
2021/12/24 11:33:31;;;;;;;131.80;40.25;;;;;;;8.48;100.00;100133.59;5009847;28;20125;-77
2021/12/24 11:35:58;;;;;;;130.35;40.35;;;;;;;8.53;100.00;100133.22;4999273;28;20030;-78
2021/12/24 11:38:26;;;;;;;127.22;41.17;;;;;;;8.51;100.00;100127.00;5007145;28;20038;-78
2021/12/24 11:40:54;;;;;;;126.00;40.97;;;;;;;8.55;100.00;100132.09;5007740;28;20064;-78
2021/12/24 11:43:21;;;;;;;128.05;42.47;;;;;;;8.56;100.00;100124.75;5008166;28;20060;-78
2021/12/24 11:45:47;;;;;;;129.10;42.30;;;;;;;8.55;100.00;100123.06;5000099;28;20358;-78
2021/12/24 11:48:13;;;;;;;149.20;41.85;;;;;;;8.51;100.00;100132.47;5006775;28;20113;-78
2021/12/24 11:50:40;;;;;;;107.57;39.38;;;;;;;8.56;100.00;100132.94;5008845;28;20426;-77
2021/12/24 11:53:10;;;;;;;142.90;44.22;;;;;;;8.55;100.00;100126.63;4980311;28;20121;-79
2021/12/24 11:55:40;;;;;;;134.45;41.85;;;;;;;8.54;100.00;100124.03;5000182;28;20026;-79
2021/12/24 11:58:08;;;;;;;128.52;44.55;;;;;;;8.48;100.00;100109.06;4998914;28;20061;-78
2021/12/24 12:00:41;;;;;;;145.68;43.13;;;;;;;8.58;100.00;100114.63;5004913;28;20046;-78
2021/12/24 12:03:09;;;;;;;120.57;42.20;;;;;;;8.62;100.00;100121.53;5020054;28;20038;-78
2021/12/24 12:05:41;;;;;;;128.30;44.40;;;;;;;8.56;100.00;100114.75;4994878;28;20386;-79
2021/12/24 12:08:36;;;;;;;141.13;43.95;;;;;;;8.58;100.00;100115.47;4994613;28;20541;-79
2021/12/24 12:11:05;;;;;;;129.02;43.65;;;;;;;8.56;100.00;100109.28;4998854;28;20185;-78
2021/12/24 12:13:52;;;;;;;130.70;40.78;;;;;;;8.62;100.00;100116.06;5003046;28;20064;-78
2021/12/24 12:16:21;;;;;;;119.43;41.25;;;;;;;8.55;100.00;100113.00;4997198;28;20074;-79
2021/12/24 12:19:01;;;;;;;124.45;40.35;;;;;;;8.59;100.00;100106.31;5005164;28;20033;-78
2021/12/24 12:21:40;;;;;;;108.57;39.95;;;;;;;8.50;100.00;100117.13;4990212;28;20030;-79
2021/12/24 12:26:51;;;;;;;113.60;38.05;;;;;;;8.53;100.00;100123.19;4998922;28;20461;-77
2021/12/24 12:29:43;;;;;;;104.78;38.95;;;;;;;8.53;100.00;100117.72;5015439;28;20061;-77
2021/12/24 12:32:12;;;;;;;108.38;37.42;;;;;;;8.54;100.00;100119.44;5016532;28;20045;-79
2021/12/24 12:34:40;;;;;;;103.20;38.88;;;;;;;8.56;100.00;100117.47;5001144;28;20038;-78
2021/12/24 12:37:13;;;;;;;113.53;40.13;;;;;;;8.58;100.00;100120.94;4994701;28;20482;-77
2021/12/24 12:39:39;;;;;;;115.95;37.47;;;;;;;8.53;100.00;100112.25;4997831;28;20385;-80
2021/12/24 12:42:05;;;;;;;120.65;39.60;;;;;;;8.62;100.00;100116.97;4998777;28;20500;-77
2021/12/24 12:44:33;;;;;;;116.82;38.75;;;;;;;8.62;100.00;100111.50;5013655;28;20038;-78
2021/12/24 12:47:10;;;;;;;114.38;37.78;;;;;;;8.61;100.00;100114.38;5004212;28;20060;-78
2021/12/24 12:49:36;;;;;;;100.75;38.10;;;;;;;8.59;100.00;100114.50;5002209;28;20018;-79
2021/12/24 12:52:07;;;;;;;127.65;39.47;;;;;;;8.62;100.00;100110.63;4995055;28;20034;-78
2021/12/24 12:54:38;;;;;;;103.70;35.75;;;;;;;8.71;100.00;100114.47;5008413;28;20034;-77
2021/12/24 12:57:27;;;;;;;118.00;39.00;;;;;;;8.63;100.00;100113.22;5009557;28;20042;-78
2021/12/24 13:00:17;;;;;;;103.32;37.78;;;;;;;8.68;100.00;100117.44;5003367;28;20030;-78